logo
Search for airport 
image banner adimage banner adimage banner ad
image banner ad

LKNO - Nove Mesto Na Morave

Located in Nove Mesto Na Morave, Czech Republic

ICAO - , IATA -

Data provided by Airmate  

General information

Coordinates: N49°33'41" E16°3'47"
Elevation is 2047 feet MSL.
 
View others Airports in Vysocina Region

Operational data

Special qualification required
Current time UTC:
Current local time:
Weather at : LKNA - Namest ( 44 km )
METAR: LKNA 161830Z 33006KT CAVOK 24/16 Q1016 RMK BLACK
TAF: TAF LKNA 161700Z 1618/1718 34006KT CAVOK PROB30 TEMPO 1700/1706 SHRA SCT040TCU
View NOTAMs / SUP AIP / TFR affecting this airport [VIEW]
Communications frequencies: [VIEW]

Runways:

Airport contact information

Address: Nove Mesto Na Morave Czech Republic

Satellite view of LKNO